sensor_id;sensor_type;location;lat;lon;timestamp;pressure;altitude;pressure_sealevel;temperature;humidity
16613;BME280;8419;52.358;9.752;2023-04-08T00:02:38;101573.00;;;18.07;30.56
16613;BME280;8419;52.358;9.752;2023-04-08T00:05:23;101566.00;;;18.11;30.57
16613;BME280;8419;52.358;9.752;2023-04-08T00:08:09;101574.00;;;18.17;30.54
16613;BME280;8419;52.358;9.752;2023-04-08T00:10:55;101577.00;;;18.21;30.56
16613;BME280;8419;52.358;9.752;2023-04-08T00:13:40;101570.00;;;18.18;30.61
16613;BME280;8419;52.358;9.752;2023-04-08T00:16:25;101572.00;;;18.16;30.70
16613;BME280;8419;52.358;9.752;2023-04-08T00:19:11;101570.00;;;18.13;30.80
16613;BME280;8419;52.358;9.752;2023-04-08T00:21:56;101583.00;;;18.16;30.79
16613;BME280;8419;52.358;9.752;2023-04-08T00:24:41;101580.00;;;18.14;30.87
16613;BME280;8419;52.358;9.752;2023-04-08T00:27:26;101578.00;;;18.16;30.82
16613;BME280;8419;52.358;9.752;2023-04-08T00:30:12;101574.00;;;18.05;31.07
16613;BME280;8419;52.358;9.752;2023-04-08T00:32:59;101576.00;;;18.07;31.11
16613;BME280;8419;52.358;9.752;2023-04-08T00:35:45;101578.00;;;18.07;31.15
16613;BME280;8419;52.358;9.752;2023-04-08T00:38:31;101587.00;;;18.14;31.08
16613;BME280;8419;52.358;9.752;2023-04-08T00:41:17;101578.00;;;18.07;31.17
16613;BME280;8419;52.358;9.752;2023-04-08T00:44:02;101580.00;;;18.08;31.19
16613;BME280;8419;52.358;9.752;2023-04-08T00:46:47;101584.00;;;18.03;31.33
16613;BME280;8419;52.358;9.752;2023-04-08T00:49:33;101583.00;;;18.02;31.36
16613;BME280;8419;52.358;9.752;2023-04-08T00:52:19;101582.00;;;17.90;31.49
16613;BME280;8419;52.358;9.752;2023-04-08T00:55:07;101585.00;;;17.91;31.52
16613;BME280;8419;52.358;9.752;2023-04-08T00:57:53;101571.00;;;17.77;31.59
16613;BME280;8419;52.358;9.752;2023-04-08T01:00:43;101571.00;;;17.63;31.80
16613;BME280;8419;52.358;9.752;2023-04-08T01:03:41;101568.00;;;17.72;31.80
16613;BME280;8419;52.358;9.752;2023-04-08T01:06:37;101571.00;;;17.68;31.92
16613;BME280;8419;52.358;9.752;2023-04-08T01:09:31;101568.00;;;17.66;31.96
16613;BME280;8419;52.358;9.752;2023-04-08T01:12:20;101571.00;;;17.70;31.92
16613;BME280;8419;52.358;9.752;2023-04-08T01:15:10;101563.00;;;17.74;31.89
16613;BME280;8419;52.358;9.752;2023-04-08T01:17:57;101567.00;;;17.72;31.90
16613;BME280;8419;52.358;9.752;2023-04-08T01:20:44;101575.00;;;17.67;31.98
16613;BME280;8419;52.358;9.752;2023-04-08T01:23:38;101573.00;;;17.63;32.10
16613;BME280;8419;52.358;9.752;2023-04-08T01:26:27;101577.00;;;17.67;32.15
16613;BME280;8419;52.358;9.752;2023-04-08T01:29:14;101570.00;;;17.67;32.13
16613;BME280;8419;52.358;9.752;2023-04-08T01:32:02;101574.00;;;17.74;32.07
16613;BME280;8419;52.358;9.752;2023-04-08T01:34:49;101567.00;;;17.75;32.08
16613;BME280;8419;52.358;9.752;2023-04-08T01:37:36;101574.00;;;17.73;32.12
16613;BME280;8419;52.358;9.752;2023-04-08T01:40:23;101568.00;;;17.60;32.34
16613;BME280;8419;52.358;9.752;2023-04-08T01:43:12;101572.00;;;17.60;32.38
16613;BME280;8419;52.358;9.752;2023-04-08T01:45:58;101587.00;;;17.65;32.31
16613;BME280;8419;52.358;9.752;2023-04-08T01:48:44;101584.00;;;17.55;32.50
16613;BME280;8419;52.358;9.752;2023-04-08T01:51:30;101583.00;;;17.53;32.44
16613;BME280;8419;52.358;9.752;2023-04-08T01:54:17;101575.00;;;17.55;32.40
16613;BME280;8419;52.358;9.752;2023-04-08T01:57:05;101568.00;;;17.54;32.46
16613;BME280;8419;52.358;9.752;2023-04-08T01:59:58;101559.00;;;17.55;32.55
16613;BME280;8419;52.358;9.752;2023-04-08T02:02:45;101551.00;;;17.58;32.46
16613;BME280;8419;52.358;9.752;2023-04-08T02:05:32;101552.00;;;17.46;32.62
16613;BME280;8419;52.358;9.752;2023-04-08T02:08:18;101552.00;;;17.33;32.75
16613;BME280;8419;52.358;9.752;2023-04-08T02:11:04;101555.00;;;17.36;32.74
16613;BME280;8419;52.358;9.752;2023-04-08T02:13:50;101556.00;;;17.34;32.72
16613;BME280;8419;52.358;9.752;2023-04-08T02:16:39;101566.00;;;17.24;32.85
16613;BME280;8419;52.358;9.752;2023-04-08T02:19:29;101568.00;;;17.22;32.99
16613;BME280;8419;52.358;9.752;2023-04-08T02:22:27;101559.00;;;17.23;32.94
16613;BME280;8419;52.358;9.752;2023-04-08T02:25:15;101570.00;;;17.23;33.00
16613;BME280;8419;52.358;9.752;2023-04-08T02:28:04;101562.00;;;17.28;32.94
16613;BME280;8419;52.358;9.752;2023-04-08T02:30:51;101566.00;;;17.29;32.95
16613;BME280;8419;52.358;9.752;2023-04-08T02:33:39;101571.00;;;17.36;32.81
16613;BME280;8419;52.358;9.752;2023-04-08T02:36:25;101571.00;;;17.36;32.78
16613;BME280;8419;52.358;9.752;2023-04-08T02:39:11;101569.00;;;17.38;32.79
16613;BME280;8419;52.358;9.752;2023-04-08T02:41:57;101562.00;;;17.15;33.10
16613;BME280;8419;52.358;9.752;2023-04-08T02:44:42;101564.00;;;17.06;33.23
16613;BME280;8419;52.358;9.752;2023-04-08T02:47:28;101563.00;;;17.02;33.28
16613;BME280;8419;52.358;9.752;2023-04-08T02:50:13;101565.00;;;17.02;33.29
16613;BME280;8419;52.358;9.752;2023-04-08T02:52:59;101575.00;;;17.01;33.35
16613;BME280;8419;52.358;9.752;2023-04-08T02:55:44;101571.00;;;17.04;33.31
16613;BME280;8419;52.358;9.752;2023-04-08T02:58:30;101578.00;;;17.08;33.28
16613;BME280;8419;52.358;9.752;2023-04-08T03:01:16;101575.00;;;17.10;33.27
16613;BME280;8419;52.358;9.752;2023-04-08T03:04:01;101581.00;;;17.27;33.08
16613;BME280;8419;52.358;9.752;2023-04-08T03:06:47;101587.00;;;17.30;32.99
16613;BME280;8419;52.358;9.752;2023-04-08T03:09:33;101591.00;;;17.35;32.96
16613;BME280;8419;52.358;9.752;2023-04-08T03:12:18;101592.00;;;17.13;33.32
16613;BME280;8419;52.358;9.752;2023-04-08T03:15:06;101590.00;;;17.17;33.29
16613;BME280;8419;52.358;9.752;2023-04-08T03:17:52;101586.00;;;17.20;33.30
16613;BME280;8419;52.358;9.752;2023-04-08T03:20:37;101589.00;;;17.22;33.28
16613;BME280;8419;52.358;9.752;2023-04-08T03:23:22;101595.00;;;17.25;33.31
16613;BME280;8419;52.358;9.752;2023-04-08T03:26:08;101589.00;;;17.37;33.16
16613;BME280;8419;52.358;9.752;2023-04-08T03:28:53;101586.00;;;17.34;33.20
16613;BME280;8419;52.358;9.752;2023-04-08T03:31:40;101595.00;;;17.32;33.30
16613;BME280;8419;52.358;9.752;2023-04-08T03:34:25;101600.00;;;17.31;33.39
16613;BME280;8419;52.358;9.752;2023-04-08T03:37:10;101594.00;;;17.26;33.46
16613;BME280;8419;52.358;9.752;2023-04-08T03:39:56;101592.00;;;17.27;33.45
16613;BME280;8419;52.358;9.752;2023-04-08T03:42:41;101602.00;;;17.17;33.63
16613;BME280;8419;52.358;9.752;2023-04-08T03:45:27;101599.00;;;17.22;33.62
16613;BME280;8419;52.358;9.752;2023-04-08T03:48:12;101594.00;;;17.33;33.42
16613;BME280;8419;52.358;9.752;2023-04-08T03:50:57;101607.00;;;17.32;33.48
16613;BME280;8419;52.358;9.752;2023-04-08T03:53:43;101600.00;;;17.27;33.53
16613;BME280;8419;52.358;9.752;2023-04-08T03:56:28;101602.00;;;17.29;33.56
16613;BME280;8419;52.358;9.752;2023-04-08T03:59:16;101607.00;;;17.29;33.61
16613;BME280;8419;52.358;9.752;2023-04-08T04:02:01;101597.00;;;17.27;33.66
16613;BME280;8419;52.358;9.752;2023-04-08T04:04:47;101597.00;;;17.43;33.46
16613;BME280;8419;52.358;9.752;2023-04-08T04:07:32;101600.00;;;17.31;33.59
16613;BME280;8419;52.358;9.752;2023-04-08T04:10:18;101602.00;;;17.28;33.67
16613;BME280;8419;52.358;9.752;2023-04-08T04:13:03;101603.00;;;17.30;33.70
16613;BME280;8419;52.358;9.752;2023-04-08T04:15:50;101600.00;;;17.34;33.62
16613;BME280;8419;52.358;9.752;2023-04-08T04:18:35;101611.00;;;17.30;33.62
16613;BME280;8419;52.358;9.752;2023-04-08T04:21:21;101614.00;;;17.33;33.65
16613;BME280;8419;52.358;9.752;2023-04-08T04:24:07;101608.00;;;17.36;33.62
16613;BME280;8419;52.358;9.752;2023-04-08T04:26:54;101617.00;;;17.32;33.68
16613;BME280;8419;52.358;9.752;2023-04-08T04:29:40;101619.00;;;17.36;33.70
16613;BME280;8419;52.358;9.752;2023-04-08T04:32:25;101616.00;;;17.35;33.78
16613;BME280;8419;52.358;9.752;2023-04-08T04:35:11;101618.00;;;17.29;33.76
16613;BME280;8419;52.358;9.752;2023-04-08T04:37:57;101621.00;;;17.25;33.86
16613;BME280;8419;52.358;9.752;2023-04-08T04:40:43;101632.00;;;17.24;33.98
16613;BME280;8419;52.358;9.752;2023-04-08T04:43:28;101628.00;;;17.26;33.96
16613;BME280;8419;52.358;9.752;2023-04-08T04:46:14;101644.00;;;17.31;34.02
16613;BME280;8419;52.358;9.752;2023-04-08T04:48:59;101633.00;;;17.35;33.99
16613;BME280;8419;52.358;9.752;2023-04-08T04:51:45;101648.00;;;17.38;34.02
16613;BME280;8419;52.358;9.752;2023-04-08T04:54:31;101647.00;;;17.37;34.09
16613;BME280;8419;52.358;9.752;2023-04-08T04:57:16;101646.00;;;17.43;34.06
16613;BME280;8419;52.358;9.752;2023-04-08T05:00:03;101653.00;;;17.37;34.18
16613;BME280;8419;52.358;9.752;2023-04-08T05:02:48;101655.00;;;17.39;34.21
16613;BME280;8419;52.358;9.752;2023-04-08T05:05:33;101655.00;;;17.39;34.23
16613;BME280;8419;52.358;9.752;2023-04-08T05:08:19;101648.00;;;17.41;34.29
16613;BME280;8419;52.358;9.752;2023-04-08T05:11:09;101654.00;;;17.41;34.33
16613;BME280;8419;52.358;9.752;2023-04-08T05:13:54;101658.00;;;17.34;34.49
16613;BME280;8419;52.358;9.752;2023-04-08T05:16:39;101667.00;;;17.39;34.48
16613;BME280;8419;52.358;9.752;2023-04-08T05:19:25;101662.00;;;17.39;34.49
16613;BME280;8419;52.358;9.752;2023-04-08T05:22:10;101675.00;;;17.41;34.54
16613;BME280;8419;52.358;9.752;2023-04-08T05:24:56;101673.00;;;17.37;34.57
16613;BME280;8419;52.358;9.752;2023-04-08T05:27:42;101672.00;;;17.35;34.62
16613;BME280;8419;52.358;9.752;2023-04-08T05:30:27;101672.00;;;17.36;34.66
16613;BME280;8419;52.358;9.752;2023-04-08T05:33:13;101672.00;;;17.36;34.72
16613;BME280;8419;52.358;9.752;2023-04-08T05:35:59;101677.00;;;17.45;34.62
16613;BME280;8419;52.358;9.752;2023-04-08T05:38:44;101671.00;;;17.42;34.68
16613;BME280;8419;52.358;9.752;2023-04-08T05:41:31;101662.00;;;17.46;34.67
16613;BME280;8419;52.358;9.752;2023-04-08T05:44:19;101670.00;;;17.55;34.58
16613;BME280;8419;52.358;9.752;2023-04-08T05:47:04;101673.00;;;17.51;34.67
16613;BME280;8419;52.358;9.752;2023-04-08T05:49:49;101680.00;;;17.56;34.59
16613;BME280;8419;52.358;9.752;2023-04-08T05:52:35;101680.00;;;17.53;34.63
16613;BME280;8419;52.358;9.752;2023-04-08T05:55:21;101677.00;;;17.55;34.66
16613;BME280;8419;52.358;9.752;2023-04-08T05:58:07;101679.00;;;17.59;34.61
16613;BME280;8419;52.358;9.752;2023-04-08T06:00:52;101682.00;;;17.64;34.58
16613;BME280;8419;52.358;9.752;2023-04-08T06:03:39;101677.00;;;17.55;34.66
16613;BME280;8419;52.358;9.752;2023-04-08T06:06:24;101690.00;;;17.50;34.74
16613;BME280;8419;52.358;9.752;2023-04-08T06:09:10;101691.00;;;17.54;34.71
16613;BME280;8419;52.358;9.752;2023-04-08T06:11:56;101696.00;;;17.56;34.70
16613;BME280;8419;52.358;9.752;2023-04-08T06:14:42;101698.00;;;17.58;34.72
16613;BME280;8419;52.358;9.752;2023-04-08T06:17:27;101700.00;;;17.59;34.71
16613;BME280;8419;52.358;9.752;2023-04-08T06:20:13;101705.00;;;17.62;34.68
16613;BME280;8419;52.358;9.752;2023-04-08T06:22:59;101704.00;;;17.62;34.72
16613;BME280;8419;52.358;9.752;2023-04-08T06:25:44;101716.00;;;17.68;34.68
16613;BME280;8419;52.358;9.752;2023-04-08T06:28:30;101720.00;;;17.65;34.76
16613;BME280;8419;52.358;9.752;2023-04-08T06:31:16;101723.00;;;17.73;34.67
16613;BME280;8419;52.358;9.752;2023-04-08T06:34:01;101731.00;;;17.80;34.62
16613;BME280;8419;52.358;9.752;2023-04-08T06:36:47;101720.00;;;17.75;34.68
16613;BME280;8419;52.358;9.752;2023-04-08T06:39:34;101723.00;;;17.82;34.59
16613;BME280;8419;52.358;9.752;2023-04-08T06:42:20;101721.00;;;17.84;34.59
16613;BME280;8419;52.358;9.752;2023-04-08T06:45:07;101727.00;;;17.85;34.62
16613;BME280;8419;52.358;9.752;2023-04-08T06:48:00;101729.00;;;17.92;34.59
16613;BME280;8419;52.358;9.752;2023-04-08T06:50:47;101728.00;;;18.01;34.54
16613;BME280;8419;52.358;9.752;2023-04-08T06:53:32;101731.00;;;18.04;34.42
16613;BME280;8419;52.358;9.752;2023-04-08T06:56:18;101740.00;;;17.97;34.50
16613;BME280;8419;52.358;9.752;2023-04-08T06:59:05;101734.00;;;18.01;34.43
16613;BME280;8419;52.358;9.752;2023-04-08T07:01:50;101741.00;;;18.08;34.41
16613;BME280;8419;52.358;9.752;2023-04-08T07:04:36;101738.00;;;18.16;34.37
16613;BME280;8419;52.358;9.752;2023-04-08T07:07:23;101745.00;;;18.25;34.33
16613;BME280;8419;52.358;9.752;2023-04-08T07:10:11;101742.00;;;18.30;34.31
16613;BME280;8419;52.358;9.752;2023-04-08T07:12:57;101740.00;;;18.33;34.28
16613;BME280;8419;52.358;9.752;2023-04-08T07:15:43;101747.00;;;18.34;34.25
16613;BME280;8419;52.358;9.752;2023-04-08T07:18:29;101749.00;;;18.53;34.01
16613;BME280;8419;52.358;9.752;2023-04-08T07:21:14;101749.00;;;18.54;34.00
16613;BME280;8419;52.358;9.752;2023-04-08T07:24:02;101746.00;;;18.38;34.28
16613;BME280;8419;52.358;9.752;2023-04-08T07:26:48;101741.00;;;18.48;34.20
16613;BME280;8419;52.358;9.752;2023-04-08T07:29:33;101758.00;;;18.53;34.11
16613;BME280;8419;52.358;9.752;2023-04-08T07:32:19;101750.00;;;18.61;34.07
16613;BME280;8419;52.358;9.752;2023-04-08T07:35:05;101760.00;;;18.63;34.06
16613;BME280;8419;52.358;9.752;2023-04-08T07:37:51;101753.00;;;18.68;34.04
16613;BME280;8419;52.358;9.752;2023-04-08T07:40:37;101754.00;;;18.81;33.90
16613;BME280;8419;52.358;9.752;2023-04-08T07:43:23;101756.00;;;18.90;33.79
16613;BME280;8419;52.358;9.752;2023-04-08T07:46:08;101760.00;;;19.01;33.66
16613;BME280;8419;52.358;9.752;2023-04-08T07:48:54;101762.00;;;18.96;33.72
16613;BME280;8419;52.358;9.752;2023-04-08T07:51:40;101760.00;;;19.02;33.69
16613;BME280;8419;52.358;9.752;2023-04-08T07:54:26;101762.00;;;19.08;33.60
16613;BME280;8419;52.358;9.752;2023-04-08T07:57:11;101765.00;;;19.11;33.57
16613;BME280;8419;52.358;9.752;2023-04-08T07:59:57;101770.00;;;19.19;33.46
16613;BME280;8419;52.358;9.752;2023-04-08T08:02:43;101773.00;;;19.16;33.48
16613;BME280;8419;52.358;9.752;2023-04-08T08:05:29;101772.00;;;19.09;33.55
16613;BME280;8419;52.358;9.752;2023-04-08T08:08:16;101774.00;;;19.09;33.63
16613;BME280;8419;52.358;9.752;2023-04-08T08:11:01;101772.00;;;19.17;33.54
16613;BME280;8419;52.358;9.752;2023-04-08T08:13:47;101781.00;;;19.22;33.47
16613;BME280;8419;52.358;9.752;2023-04-08T08:16:35;101788.00;;;19.23;33.50
16613;BME280;8419;52.358;9.752;2023-04-08T08:19:23;101782.00;;;19.27;33.44
16613;BME280;8419;52.358;9.752;2023-04-08T08:22:11;101795.00;;;19.27;33.45
16613;BME280;8419;52.358;9.752;2023-04-08T08:24:57;101804.00;;;19.37;33.40
16613;BME280;8419;52.358;9.752;2023-04-08T08:27:43;101793.00;;;19.53;33.25
16613;BME280;8419;52.358;9.752;2023-04-08T08:30:29;101799.00;;;19.63;33.10
16613;BME280;8419;52.358;9.752;2023-04-08T08:33:15;101801.00;;;19.64;33.06
16613;BME280;8419;52.358;9.752;2023-04-08T08:36:00;101801.00;;;19.61;33.09
16613;BME280;8419;52.358;9.752;2023-04-08T08:38:46;101803.00;;;19.68;33.04
16613;BME280;8419;52.358;9.752;2023-04-08T08:41:33;101805.00;;;19.73;32.99
16613;BME280;8419;52.358;9.752;2023-04-08T08:44:20;101815.00;;;19.87;32.85
16613;BME280;8419;52.358;9.752;2023-04-08T08:47:06;101815.00;;;19.87;32.90
16613;BME280;8419;52.358;9.752;2023-04-08T08:49:52;101810.00;;;19.79;32.95
16613;BME280;8419;52.358;9.752;2023-04-08T08:52:37;101813.00;;;19.71;33.09
16613;BME280;8419;52.358;9.752;2023-04-08T08:55:23;101815.00;;;19.82;32.98
16613;BME280;8419;52.358;9.752;2023-04-08T08:58:08;101820.00;;;19.88;32.92
16613;BME280;8419;52.358;9.752;2023-04-08T09:00:54;101817.00;;;19.89;32.93
16613;BME280;8419;52.358;9.752;2023-04-08T09:03:40;101817.00;;;19.99;32.86
16613;BME280;8419;52.358;9.752;2023-04-08T09:06:25;101821.00;;;20.06;32.77
16613;BME280;8419;52.358;9.752;2023-04-08T09:09:12;101817.00;;;20.08;32.75
16613;BME280;8419;52.358;9.752;2023-04-08T09:12:03;101833.00;;;20.08;32.76
16613;BME280;8419;52.358;9.752;2023-04-08T09:14:48;101836.00;;;20.08;32.79
16613;BME280;8419;52.358;9.752;2023-04-08T09:17:36;101837.00;;;20.09;32.72
16613;BME280;8419;52.358;9.752;2023-04-08T09:20:23;101834.00;;;20.10;32.71
16613;BME280;8419;52.358;9.752;2023-04-08T09:23:08;101838.00;;;20.05;32.81
16613;BME280;8419;52.358;9.752;2023-04-08T09:26:01;101837.00;;;20.04;32.82
16613;BME280;8419;52.358;9.752;2023-04-08T09:28:59;101843.00;;;20.03;32.93
16613;BME280;8419;52.358;9.752;2023-04-08T09:31:46;101839.00;;;20.09;32.82
16613;BME280;8419;52.358;9.752;2023-04-08T09:34:38;101852.00;;;20.08;32.78
16613;BME280;8419;52.358;9.752;2023-04-08T09:37:24;101854.00;;;20.11;32.75
16613;BME280;8419;52.358;9.752;2023-04-08T09:40:10;101852.00;;;20.12;32.76
16613;BME280;8419;52.358;9.752;2023-04-08T09:42:58;101866.00;;;20.18;32.67
16613;BME280;8419;52.358;9.752;2023-04-08T09:45:47;101865.00;;;20.13;32.74
16613;BME280;8419;52.358;9.752;2023-04-08T09:48:39;101861.00;;;20.09;32.81
16613;BME280;8419;52.358;9.752;2023-04-08T09:51:31;101856.00;;;20.12;32.82
16613;BME280;8419;52.358;9.752;2023-04-08T09:54:20;101847.00;;;20.23;32.70
16613;BME280;8419;52.358;9.752;2023-04-08T09:57:09;101854.00;;;20.38;32.53
16613;BME280;8419;52.358;9.752;2023-04-08T10:00:02;101856.00;;;20.44;32.51
16613;BME280;8419;52.358;9.752;2023-04-08T10:02:54;101855.00;;;20.56;32.41
16613;BME280;8419;52.358;9.752;2023-04-08T10:05:42;101857.00;;;20.57;32.42
16613;BME280;8419;52.358;9.752;2023-04-08T10:08:28;101863.00;;;20.72;32.26
16613;BME280;8419;52.358;9.752;2023-04-08T10:11:16;101867.00;;;20.73;32.23
16613;BME280;8419;52.358;9.752;2023-04-08T10:14:01;101866.00;;;20.75;32.22
16613;BME280;8419;52.358;9.752;2023-04-08T10:16:47;101869.00;;;20.74;32.26
16613;BME280;8419;52.358;9.752;2023-04-08T10:19:37;101870.00;;;20.74;32.25
16613;BME280;8419;52.358;9.752;2023-04-08T10:22:46;101871.00;;;20.72;32.32
16613;BME280;8419;52.358;9.752;2023-04-08T10:25:33;101853.00;;;20.58;32.43
16613;BME280;8419;52.358;9.752;2023-04-08T10:28:27;101863.00;;;20.42;32.55
16613;BME280;8419;52.358;9.752;2023-04-08T10:31:21;101872.00;;;20.36;32.73
16613;BME280;8419;52.358;9.752;2023-04-08T10:34:15;101871.00;;;20.40;32.66
16613;BME280;8419;52.358;9.752;2023-04-08T10:37:02;101872.00;;;20.33;32.77
16613;BME280;8419;52.358;9.752;2023-04-08T10:39:53;101867.00;;;20.31;32.68
16613;BME280;8419;52.358;9.752;2023-04-08T10:42:39;101866.00;;;20.28;32.83
16613;BME280;8419;52.358;9.752;2023-04-08T10:45:25;101867.00;;;20.35;32.72
16613;BME280;8419;52.358;9.752;2023-04-08T10:48:15;101871.00;;;20.47;32.64
16613;BME280;8419;52.358;9.752;2023-04-08T10:51:03;101869.00;;;20.52;32.59
16613;BME280;8419;52.358;9.752;2023-04-08T10:53:49;101875.00;;;20.52;32.59
16613;BME280;8419;52.358;9.752;2023-04-08T10:56:36;101879.00;;;20.51;32.57
16613;BME280;8419;52.358;9.752;2023-04-08T10:59:29;101871.00;;;20.48;32.64
16613;BME280;8419;52.358;9.752;2023-04-08T11:02:16;101866.00;;;20.56;32.61
16613;BME280;8419;52.358;9.752;2023-04-08T11:05:02;101879.00;;;20.67;32.48
16613;BME280;8419;52.358;9.752;2023-04-08T11:07:48;101869.00;;;20.65;32.48
16613;BME280;8419;52.358;9.752;2023-04-08T11:10:37;101874.00;;;20.60;32.54
16613;BME280;8419;52.358;9.752;2023-04-08T11:13:23;101879.00;;;20.61;32.58
16613;BME280;8419;52.358;9.752;2023-04-08T11:16:10;101881.00;;;20.64;32.49
16613;BME280;8419;52.358;9.752;2023-04-08T11:18:57;101881.00;;;20.52;32.60
16613;BME280;8419;52.358;9.752;2023-04-08T11:21:42;101881.00;;;20.46;32.68
16613;BME280;8419;52.358;9.752;2023-04-08T11:24:28;101876.00;;;20.40;32.74
16613;BME280;8419;52.358;9.752;2023-04-08T11:27:14;101884.00;;;20.37;32.80
16613;BME280;8419;52.358;9.752;2023-04-08T11:30:03;101880.00;;;20.31;32.85
16613;BME280;8419;52.358;9.752;2023-04-08T11:32:51;101882.00;;;20.31;32.89
16613;BME280;8419;52.358;9.752;2023-04-08T11:35:40;101885.00;;;20.31;32.86
16613;BME280;8419;52.358;9.752;2023-04-08T11:38:26;101882.00;;;20.28;32.94
16613;BME280;8419;52.358;9.752;2023-04-08T11:41:11;101876.00;;;20.23;32.97
16613;BME280;8419;52.358;9.752;2023-04-08T11:43:57;101875.00;;;20.27;33.01
16613;BME280;8419;52.358;9.752;2023-04-08T11:46:51;101889.00;;;20.43;32.82
16613;BME280;8419;52.358;9.752;2023-04-08T11:49:47;101882.00;;;20.53;32.76
16613;BME280;8419;52.358;9.752;2023-04-08T11:52:43;101890.00;;;20.60;32.67
16613;BME280;8419;52.358;9.752;2023-04-08T11:55:30;101891.00;;;20.62;32.69
16613;BME280;8419;52.358;9.752;2023-04-08T11:58:16;101896.00;;;20.62;32.69
16613;BME280;8419;52.358;9.752;2023-04-08T12:01:02;101899.00;;;20.74;32.49
16613;BME280;8419;52.358;9.752;2023-04-08T12:03:58;101901.00;;;20.64;32.66
16613;BME280;8419;52.358;9.752;2023-04-08T12:06:45;101900.00;;;20.73;32.58
16613;BME280;8419;52.358;9.752;2023-04-08T12:09:31;101905.00;;;20.67;32.59
16613;BME280;8419;52.358;9.752;2023-04-08T12:12:16;101900.00;;;20.65;32.61
16613;BME280;8419;52.358;9.752;2023-04-08T12:15:02;101901.00;;;20.64;32.66
16613;BME280;8419;52.358;9.752;2023-04-08T12:17:47;101903.00;;;20.70;32.55
16613;BME280;8419;52.358;9.752;2023-04-08T12:20:33;101905.00;;;20.64;32.64
16613;BME280;8419;52.358;9.752;2023-04-08T12:23:19;101909.00;;;20.60;32.70
16613;BME280;8419;52.358;9.752;2023-04-08T12:26:04;101896.00;;;20.62;32.69
16613;BME280;8419;52.358;9.752;2023-04-08T12:28:50;101901.00;;;20.68;32.68
16613;BME280;8419;52.358;9.752;2023-04-08T12:31:36;101901.00;;;20.71;32.64
16613;BME280;8419;52.358;9.752;2023-04-08T12:34:21;101902.00;;;20.73;32.62
16613;BME280;8419;52.358;9.752;2023-04-08T12:37:07;101905.00;;;20.64;32.71
16613;BME280;8419;52.358;9.752;2023-04-08T12:39:54;101905.00;;;20.48;32.97
16613;BME280;8419;52.358;9.752;2023-04-08T12:42:40;101907.00;;;20.44;33.08
16613;BME280;8419;52.358;9.752;2023-04-08T12:45:27;101907.00;;;20.44;33.20
16613;BME280;8419;52.358;9.752;2023-04-08T12:48:14;101904.00;;;20.44;33.28
16613;BME280;8419;52.358;9.752;2023-04-08T12:51:00;101909.00;;;20.50;33.20
16613;BME280;8419;52.358;9.752;2023-04-08T12:53:45;101901.00;;;20.45;33.28
16613;BME280;8419;52.358;9.752;2023-04-08T12:56:31;101895.00;;;20.48;33.28
16613;BME280;8419;52.358;9.752;2023-04-08T12:59:17;101900.00;;;20.51;33.26
16613;BME280;8419;52.358;9.752;2023-04-08T13:02:03;101903.00;;;20.57;33.25
16613;BME280;8419;52.358;9.752;2023-04-08T13:04:49;101901.00;;;20.82;32.95
16613;BME280;8419;52.358;9.752;2023-04-08T13:07:36;101898.00;;;20.91;32.84
16613;BME280;8419;52.358;9.752;2023-04-08T13:10:22;101902.00;;;20.93;32.82
16613;BME280;8419;52.358;9.752;2023-04-08T13:13:10;101885.00;;;20.94;32.85
16613;BME280;8419;52.358;9.752;2023-04-08T13:15:58;101885.00;;;20.93;32.88
16613;BME280;8419;52.358;9.752;2023-04-08T13:18:43;101890.00;;;21.04;32.79
16613;BME280;8419;52.358;9.752;2023-04-08T13:21:29;101893.00;;;21.09;32.70
16613;BME280;8419;52.358;9.752;2023-04-08T13:24:15;101886.00;;;21.14;32.63
16613;BME280;8419;52.358;9.752;2023-04-08T13:27:02;101884.00;;;21.18;32.52
16613;BME280;8419;52.358;9.752;2023-04-08T13:29:49;101881.00;;;21.19;32.52
16613;BME280;8419;52.358;9.752;2023-04-08T13:32:34;101887.00;;;21.16;32.55
16613;BME280;8419;52.358;9.752;2023-04-08T13:35:20;101889.00;;;21.27;32.46
16613;BME280;8419;52.358;9.752;2023-04-08T13:38:05;101881.00;;;21.45;32.31
16613;BME280;8419;52.358;9.752;2023-04-08T13:40:51;101891.00;;;21.60;32.08
16613;BME280;8419;52.358;9.752;2023-04-08T13:43:37;101890.00;;;21.72;31.97
16613;BME280;8419;52.358;9.752;2023-04-08T13:46:26;101889.00;;;21.75;31.98
16613;BME280;8419;52.358;9.752;2023-04-08T13:49:13;101885.00;;;21.82;31.86
16613;BME280;8419;52.358;9.752;2023-04-08T13:52:00;101884.00;;;21.82;31.85
16613;BME280;8419;52.358;9.752;2023-04-08T13:54:45;101887.00;;;21.73;31.94
16613;BME280;8419;52.358;9.752;2023-04-08T13:57:31;101880.00;;;21.66;32.03
16613;BME280;8419;52.358;9.752;2023-04-08T14:00:17;101880.00;;;21.74;31.96
16613;BME280;8419;52.358;9.752;2023-04-08T14:03:03;101881.00;;;21.84;31.85
16613;BME280;8419;52.358;9.752;2023-04-08T14:05:48;101878.00;;;21.90;31.78
16613;BME280;8419;52.358;9.752;2023-04-08T14:08:34;101877.00;;;21.93;31.75
16613;BME280;8419;52.358;9.752;2023-04-08T14:11:20;101883.00;;;22.03;31.61
16613;BME280;8419;52.358;9.752;2023-04-08T14:14:09;101889.00;;;22.02;31.65
16613;BME280;8419;52.358;9.752;2023-04-08T14:16:54;101884.00;;;21.97;31.68
16613;BME280;8419;52.358;9.752;2023-04-08T14:19:40;101881.00;;;22.02;31.56
16613;BME280;8419;52.358;9.752;2023-04-08T14:22:26;101881.00;;;21.91;31.71
16613;BME280;8419;52.358;9.752;2023-04-08T14:25:11;101893.00;;;21.87;31.73
16613;BME280;8419;52.358;9.752;2023-04-08T14:27:57;101893.00;;;21.81;31.84
16613;BME280;8419;52.358;9.752;2023-04-08T14:30:42;101891.00;;;21.79;31.80
16613;BME280;8419;52.358;9.752;2023-04-08T14:33:28;101890.00;;;21.82;31.77
16613;BME280;8419;52.358;9.752;2023-04-08T14:36:15;101887.00;;;21.80;31.77
16613;BME280;8419;52.358;9.752;2023-04-08T14:39:01;101894.00;;;21.70;31.89
16613;BME280;8419;52.358;9.752;2023-04-08T14:41:47;101884.00;;;21.70;31.86
16613;BME280;8419;52.358;9.752;2023-04-08T14:44:33;101887.00;;;21.70;31.82